sensor_id;sensor_type;location;lat;lon;timestamp;P1;durP1;ratioP1;P2;durP2;ratioP2
54557;SDS011;40452;50.080;20.040;2023-07-08T04:22:21;11.35;;;5.00;;
54557;SDS011;40452;50.080;20.040;2023-07-08T04:24:47;8.98;;;4.50;;
54557;SDS011;40452;50.080;20.040;2023-07-08T04:27:16;7.80;;;4.93;;
54557;SDS011;40452;50.080;20.040;2023-07-08T04:29:42;6.90;;;4.57;;
54557;SDS011;40452;50.080;20.040;2023-07-08T04:32:09;8.95;;;4.65;;
54557;SDS011;40452;50.080;20.040;2023-07-08T04:34:34;8.45;;;4.57;;
54557;SDS011;40452;50.080;20.040;2023-07-08T04:37:00;6.97;;;3.83;;
54557;SDS011;40452;50.080;20.040;2023-07-08T04:39:26;8.32;;;4.70;;
54557;SDS011;40452;50.080;20.040;2023-07-08T04:41:52;9.65;;;4.65;;
54557;SDS011;40452;50.080;20.040;2023-07-08T04:44:18;9.02;;;4.60;;
54557;SDS011;40452;50.080;20.040;2023-07-08T04:46:51;10.00;;;4.63;;
54557;SDS011;40452;50.080;20.040;2023-07-08T04:49:19;9.15;;;4.55;;
54557;SDS011;40452;50.080;20.040;2023-07-08T04:51:46;7.53;;;4.35;;
54557;SDS011;40452;50.080;20.040;2023-07-08T04:54:12;7.50;;;4.50;;
54557;SDS011;40452;50.080;20.040;2023-07-08T04:56:39;7.57;;;4.28;;
54557;SDS011;40452;50.080;20.040;2023-07-08T04:59:10;6.30;;;4.10;;
54557;SDS011;40452;50.080;20.040;2023-07-08T05:01:39;8.00;;;3.92;;
54557;SDS011;40452;50.080;20.040;2023-07-08T05:04:05;7.75;;;4.25;;
54557;SDS011;40452;50.080;20.040;2023-07-08T05:06:31;9.75;;;4.30;;
54557;SDS011;40452;50.080;20.040;2023-07-08T05:08:58;6.55;;;4.22;;
54557;SDS011;40452;50.080;20.040;2023-07-08T05:11:24;6.13;;;4.10;;
54557;SDS011;40452;50.080;20.040;2023-07-08T05:13:50;6.50;;;3.83;;
54557;SDS011;40452;50.080;20.040;2023-07-08T05:16:15;5.75;;;3.95;;
54557;SDS011;40452;50.080;20.040;2023-07-08T05:18:41;9.13;;;4.28;;
54557;SDS011;40452;50.080;20.040;2023-07-08T05:21:08;10.20;;;4.22;;
54557;SDS011;40452;50.080;20.040;2023-07-08T05:23:34;5.05;;;3.85;;
54557;SDS011;40452;50.080;20.040;2023-07-08T05:26:00;6.65;;;4.00;;
54557;SDS011;40452;50.080;20.040;2023-07-08T05:28:27;7.38;;;4.20;;
54557;SDS011;40452;50.080;20.040;2023-07-08T05:30:53;7.70;;;4.00;;
54557;SDS011;40452;50.080;20.040;2023-07-08T05:33:24;6.35;;;4.03;;
54557;SDS011;40452;50.080;20.040;2023-07-08T05:35:50;6.68;;;3.92;;
54557;SDS011;40452;50.080;20.040;2023-07-08T05:38:17;8.05;;;4.28;;
54557;SDS011;40452;50.080;20.040;2023-07-08T05:40:43;7.47;;;3.95;;
54557;SDS011;40452;50.080;20.040;2023-07-08T05:43:08;6.88;;;3.78;;
54557;SDS011;40452;50.080;20.040;2023-07-08T05:45:34;7.20;;;4.18;;
54557;SDS011;40452;50.080;20.040;2023-07-08T05:48:01;8.13;;;4.10;;
54557;SDS011;40452;50.080;20.040;2023-07-08T05:50:27;6.82;;;3.40;;
54557;SDS011;40452;50.080;20.040;2023-07-08T05:52:52;6.60;;;4.05;;
54557;SDS011;40452;50.080;20.040;2023-07-08T05:55:18;7.88;;;3.80;;
54557;SDS011;40452;50.080;20.040;2023-07-08T05:57:44;6.43;;;3.90;;
54557;SDS011;40452;50.080;20.040;2023-07-08T06:00:09;4.70;;;3.40;;
54557;SDS011;40452;50.080;20.040;2023-07-08T06:02:36;7.45;;;3.75;;
54557;SDS011;40452;50.080;20.040;2023-07-08T06:05:01;6.50;;;3.85;;
54557;SDS011;40452;50.080;20.040;2023-07-08T06:07:27;4.68;;;3.45;;
54557;SDS011;40452;50.080;20.040;2023-07-08T06:09:53;5.82;;;3.60;;
54557;SDS011;40452;50.080;20.040;2023-07-08T06:12:20;7.10;;;3.60;;
54557;SDS011;40452;50.080;20.040;2023-07-08T06:14:46;6.47;;;3.50;;
54557;SDS011;40452;50.080;20.040;2023-07-08T06:17:12;5.70;;;3.50;;
54557;SDS011;40452;50.080;20.040;2023-07-08T06:19:38;6.18;;;3.53;;
54557;SDS011;40452;50.080;20.040;2023-07-08T06:22:03;5.57;;;3.45;;
54557;SDS011;40452;50.080;20.040;2023-07-08T06:24:29;6.30;;;3.38;;
54557;SDS011;40452;50.080;20.040;2023-07-08T06:26:54;8.18;;;3.70;;
54557;SDS011;40452;50.080;20.040;2023-07-08T06:29:20;5.70;;;3.58;;
54557;SDS011;40452;50.080;20.040;2023-07-08T06:31:45;6.93;;;3.20;;
54557;SDS011;40452;50.080;20.040;2023-07-08T06:34:11;6.28;;;3.03;;
54557;SDS011;40452;50.080;20.040;2023-07-08T06:36:36;5.32;;;3.40;;
54557;SDS011;40452;50.080;20.040;2023-07-08T06:39:02;8.05;;;2.95;;
54557;SDS011;40452;50.080;20.040;2023-07-08T06:41:28;7.88;;;3.45;;
54557;SDS011;40452;50.080;20.040;2023-07-08T06:43:54;9.70;;;3.47;;
54557;SDS011;40452;50.080;20.040;2023-07-08T06:46:19;14.32;;;3.88;;
54557;SDS011;40452;50.080;20.040;2023-07-08T06:48:45;6.20;;;3.70;;
54557;SDS011;40452;50.080;20.040;2023-07-08T06:51:10;6.22;;;3.60;;
54557;SDS011;40452;50.080;20.040;2023-07-08T06:53:36;7.30;;;3.80;;
54557;SDS011;40452;50.080;20.040;2023-07-08T06:56:01;5.55;;;3.20;;
54557;SDS011;40452;50.080;20.040;2023-07-08T06:58:27;5.32;;;3.10;;
54557;SDS011;40452;50.080;20.040;2023-07-08T07:00:53;4.80;;;3.50;;
54557;SDS011;40452;50.080;20.040;2023-07-08T07:03:19;4.65;;;3.30;;
54557;SDS011;40452;50.080;20.040;2023-07-08T07:05:44;6.63;;;3.38;;
54557;SDS011;40452;50.080;20.040;2023-07-08T07:08:10;5.63;;;3.53;;
54557;SDS011;40452;50.080;20.040;2023-07-08T07:10:35;8.60;;;3.15;;
54557;SDS011;40452;50.080;20.040;2023-07-08T07:13:01;5.97;;;3.40;;
54557;SDS011;40452;50.080;20.040;2023-07-08T07:15:27;6.15;;;3.30;;
54557;SDS011;40452;50.080;20.040;2023-07-08T07:17:55;5.97;;;3.00;;
54557;SDS011;40452;50.080;20.040;2023-07-08T07:20:21;7.60;;;3.05;;
54557;SDS011;40452;50.080;20.040;2023-07-08T07:22:47;5.28;;;3.08;;
54557;SDS011;40452;50.080;20.040;2023-07-08T07:25:13;6.05;;;3.35;;
54557;SDS011;40452;50.080;20.040;2023-07-08T07:27:38;4.03;;;3.00;;
54557;SDS011;40452;50.080;20.040;2023-07-08T07:30:04;5.30;;;3.22;;
54557;SDS011;40452;50.080;20.040;2023-07-08T07:32:30;3.42;;;2.58;;
54557;SDS011;40452;50.080;20.040;2023-07-08T07:34:58;4.03;;;2.78;;
54557;SDS011;40452;50.080;20.040;2023-07-08T07:37:24;3.53;;;2.80;;
54557;SDS011;40452;50.080;20.040;2023-07-08T07:39:50;5.00;;;2.88;;
54557;SDS011;40452;50.080;20.040;2023-07-08T07:42:17;3.70;;;2.70;;
54557;SDS011;40452;50.080;20.040;2023-07-08T07:44:44;7.05;;;2.97;;
54557;SDS011;40452;50.080;20.040;2023-07-08T07:47:09;5.28;;;2.70;;
54557;SDS011;40452;50.080;20.040;2023-07-08T07:49:36;5.45;;;3.10;;
54557;SDS011;40452;50.080;20.040;2023-07-08T07:52:02;3.92;;;2.65;;
54557;SDS011;40452;50.080;20.040;2023-07-08T07:54:28;4.82;;;2.92;;
54557;SDS011;40452;50.080;20.040;2023-07-08T07:56:54;6.05;;;2.85;;
54557;SDS011;40452;50.080;20.040;2023-07-08T07:59:21;4.32;;;2.50;;
54557;SDS011;40452;50.080;20.040;2023-07-08T08:01:46;3.75;;;2.40;;
54557;SDS011;40452;50.080;20.040;2023-07-08T08:04:12;4.35;;;2.45;;
54557;SDS011;40452;50.080;20.040;2023-07-08T08:06:37;4.65;;;2.65;;
54557;SDS011;40452;50.080;20.040;2023-07-08T08:09:04;6.72;;;2.80;;
54557;SDS011;40452;50.080;20.040;2023-07-08T08:11:30;3.60;;;2.58;;
54557;SDS011;40452;50.080;20.040;2023-07-08T08:13:55;3.83;;;2.50;;
54557;SDS011;40452;50.080;20.040;2023-07-08T08:16:21;3.67;;;2.30;;
54557;SDS011;40452;50.080;20.040;2023-07-08T08:18:47;3.42;;;2.45;;
54557;SDS011;40452;50.080;20.040;2023-07-08T08:21:13;4.07;;;2.50;;
54557;SDS011;40452;50.080;20.040;2023-07-08T08:23:39;6.85;;;3.20;;
54557;SDS011;40452;50.080;20.040;2023-07-08T08:26:04;4.32;;;2.92;;
54557;SDS011;40452;50.080;20.040;2023-07-08T08:28:30;3.83;;;2.45;;
54557;SDS011;40452;50.080;20.040;2023-07-08T08:30:56;7.00;;;2.92;;
54557;SDS011;40452;50.080;20.040;2023-07-08T08:33:24;8.80;;;2.60;;
54557;SDS011;40452;50.080;20.040;2023-07-08T08:35:50;11.00;;;2.50;;
54557;SDS011;40452;50.080;20.040;2023-07-08T08:38:16;4.20;;;2.67;;
54557;SDS011;40452;50.080;20.040;2023-07-08T08:40:44;4.97;;;2.75;;
54557;SDS011;40452;50.080;20.040;2023-07-08T08:43:12;3.90;;;2.60;;
54557;SDS011;40452;50.080;20.040;2023-07-08T08:51:41;4.95;;;2.53;;
54557;SDS011;40452;50.080;20.040;2023-07-08T08:54:07;10.57;;;2.60;;
54557;SDS011;40452;50.080;20.040;2023-07-08T08:56:58;4.32;;;2.45;;
54557;SDS011;40452;50.080;20.040;2023-07-08T09:04:44;4.82;;;2.60;;
54557;SDS011;40452;50.080;20.040;2023-07-08T09:07:14;4.72;;;2.35;;
54557;SDS011;40452;50.080;20.040;2023-07-08T09:09:46;5.40;;;2.45;;
54557;SDS011;40452;50.080;20.040;2023-07-08T09:12:33;3.20;;;2.33;;
54557;SDS011;40452;50.080;20.040;2023-07-08T09:14:59;3.85;;;2.33;;
54557;SDS011;40452;50.080;20.040;2023-07-08T09:17:36;8.23;;;2.53;;
54557;SDS011;40452;50.080;20.040;2023-07-08T09:22:32;6.00;;;2.40;;
54557;SDS011;40452;50.080;20.040;2023-07-08T09:30:09;4.53;;;2.10;;
54557;SDS011;40452;50.080;20.040;2023-07-08T09:32:39;5.15;;;2.25;;
54557;SDS011;40452;50.080;20.040;2023-07-08T09:35:06;5.90;;;2.20;;
54557;SDS011;40452;50.080;20.040;2023-07-08T09:37:34;4.22;;;2.42;;
54557;SDS011;40452;50.080;20.040;2023-07-08T09:40:17;7.57;;;2.50;;
54557;SDS011;40452;50.080;20.040;2023-07-08T09:42:52;5.15;;;2.28;;
54557;SDS011;40452;50.080;20.040;2023-07-08T09:45:28;5.20;;;2.20;;
54557;SDS011;40452;50.080;20.040;2023-07-08T09:48:04;4.10;;;2.28;;
54557;SDS011;40452;50.080;20.040;2023-07-08T09:50:46;3.37;;;2.20;;
54557;SDS011;40452;50.080;20.040;2023-07-08T09:53:14;3.65;;;2.20;;
54557;SDS011;40452;50.080;20.040;2023-07-08T09:55:40;9.48;;;3.15;;
54557;SDS011;40452;50.080;20.040;2023-07-08T09:58:08;3.88;;;2.10;;
54557;SDS011;40452;50.080;20.040;2023-07-08T10:00:39;3.70;;;2.10;;
54557;SDS011;40452;50.080;20.040;2023-07-08T10:03:48;5.10;;;2.00;;
54557;SDS011;40452;50.080;20.040;2023-07-08T10:05:58;2.88;;;2.15;;
54557;SDS011;40452;50.080;20.040;2023-07-08T10:08:51;6.40;;;2.17;;
54557;SDS011;40452;50.080;20.040;2023-07-08T10:14:01;3.60;;;2.15;;
54557;SDS011;40452;50.080;20.040;2023-07-08T10:16:32;6.70;;;2.28;;
54557;SDS011;40452;50.080;20.040;2023-07-08T10:18:58;3.40;;;1.92;;
54557;SDS011;40452;50.080;20.040;2023-07-08T10:21:34;3.67;;;1.90;;
54557;SDS011;40452;50.080;20.040;2023-07-08T10:24:16;4.38;;;1.70;;
54557;SDS011;40452;50.080;20.040;2023-07-08T10:26:50;4.10;;;1.97;;
54557;SDS011;40452;50.080;20.040;2023-07-08T10:29:36;3.95;;;1.90;;
54557;SDS011;40452;50.080;20.040;2023-07-08T10:34:49;5.57;;;2.30;;
54557;SDS011;40452;50.080;20.040;2023-07-08T10:37:47;3.78;;;2.08;;
54557;SDS011;40452;50.080;20.040;2023-07-08T10:46:24;5.03;;;2.10;;
54557;SDS011;40452;50.080;20.040;2023-07-08T10:51:29;2.72;;;1.88;;
54557;SDS011;40452;50.080;20.040;2023-07-08T10:56:49;4.47;;;2.10;;
54557;SDS011;40452;50.080;20.040;2023-07-08T11:02:34;4.80;;;2.20;;
54557;SDS011;40452;50.080;20.040;2023-07-08T11:10:23;2.50;;;1.67;;
54557;SDS011;40452;50.080;20.040;2023-07-08T11:13:02;3.90;;;1.80;;
54557;SDS011;40452;50.080;20.040;2023-07-08T11:15:46;4.05;;;1.77;;
54557;SDS011;40452;50.080;20.040;2023-07-08T11:18:16;3.47;;;1.65;;
54557;SDS011;40452;50.080;20.040;2023-07-08T11:21:10;4.57;;;2.10;;
54557;SDS011;40452;50.080;20.040;2023-07-08T11:23:43;2.72;;;1.70;;
54557;SDS011;40452;50.080;20.040;2023-07-08T11:28:56;4.03;;;1.88;;
54557;SDS011;40452;50.080;20.040;2023-07-08T11:31:23;2.95;;;1.50;;
54557;SDS011;40452;50.080;20.040;2023-07-08T11:33:50;2.00;;;1.40;;
54557;SDS011;40452;50.080;20.040;2023-07-08T11:36:17;4.80;;;1.92;;
54557;SDS011;40452;50.080;20.040;2023-07-08T11:38:54;2.38;;;1.52;;
54557;SDS011;40452;50.080;20.040;2023-07-08T11:41:22;4.13;;;1.70;;
54557;SDS011;40452;50.080;20.040;2023-07-08T11:43:51;5.53;;;1.70;;
54557;SDS011;40452;50.080;20.040;2023-07-08T11:46:30;3.73;;;1.70;;
54557;SDS011;40452;50.080;20.040;2023-07-08T11:49:00;2.00;;;1.50;;
54557;SDS011;40452;50.080;20.040;2023-07-08T11:51:41;8.02;;;1.80;;
54557;SDS011;40452;50.080;20.040;2023-07-08T11:54:14;3.10;;;1.38;;
54557;SDS011;40452;50.080;20.040;2023-07-08T11:59:24;4.15;;;1.80;;
54557;SDS011;40452;50.080;20.040;2023-07-08T12:01:52;2.75;;;1.58;;
54557;SDS011;40452;50.080;20.040;2023-07-08T12:07:09;2.40;;;1.63;;
54557;SDS011;40452;50.080;20.040;2023-07-08T12:12:20;2.58;;;1.45;;
54557;SDS011;40452;50.080;20.040;2023-07-08T12:14:49;3.20;;;1.60;;
54557;SDS011;40452;50.080;20.040;2023-07-08T12:17:18;3.85;;;1.42;;
54557;SDS011;40452;50.080;20.040;2023-07-08T12:19:44;4.00;;;2.13;;
54557;SDS011;40452;50.080;20.040;2023-07-08T12:22:12;4.35;;;1.58;;
54557;SDS011;40452;50.080;20.040;2023-07-08T12:24:39;3.95;;;1.80;;
54557;SDS011;40452;50.080;20.040;2023-07-08T12:27:05;2.20;;;1.58;;
54557;SDS011;40452;50.080;20.040;2023-07-08T12:29:31;6.13;;;1.73;;
54557;SDS011;40452;50.080;20.040;2023-07-08T12:31:57;2.97;;;1.60;;
54557;SDS011;40452;50.080;20.040;2023-07-08T12:34:23;3.35;;;1.58;;
54557;SDS011;40452;50.080;20.040;2023-07-08T12:36:50;2.90;;;1.60;;
54557;SDS011;40452;50.080;20.040;2023-07-08T12:39:16;3.10;;;1.60;;
54557;SDS011;40452;50.080;20.040;2023-07-08T12:41:43;4.47;;;1.90;;
54557;SDS011;40452;50.080;20.040;2023-07-08T12:44:16;3.03;;;1.40;;
54557;SDS011;40452;50.080;20.040;2023-07-08T12:46:44;2.42;;;1.55;;
54557;SDS011;40452;50.080;20.040;2023-07-08T12:49:10;2.50;;;1.60;;
54557;SDS011;40452;50.080;20.040;2023-07-08T12:51:36;2.97;;;1.63;;
54557;SDS011;40452;50.080;20.040;2023-07-08T12:54:02;6.18;;;1.70;;
54557;SDS011;40452;50.080;20.040;2023-07-08T12:56:27;7.53;;;2.80;;
54557;SDS011;40452;50.080;20.040;2023-07-08T12:58:55;5.10;;;1.95;;
54557;SDS011;40452;50.080;20.040;2023-07-08T13:01:22;2.85;;;1.88;;
54557;SDS011;40452;50.080;20.040;2023-07-08T13:03:55;3.72;;;2.08;;
54557;SDS011;40452;50.080;20.040;2023-07-08T13:06:25;3.40;;;1.90;;
54557;SDS011;40452;50.080;20.040;2023-07-08T13:09:00;4.60;;;2.03;;
54557;SDS011;40452;50.080;20.040;2023-07-08T13:11:33;5.60;;;2.03;;
54557;SDS011;40452;50.080;20.040;2023-07-08T13:14:01;4.18;;;1.88;;
54557;SDS011;40452;50.080;20.040;2023-07-08T13:16:30;3.00;;;1.90;;
54557;SDS011;40452;50.080;20.040;2023-07-08T13:18:57;5.90;;;2.03;;
54557;SDS011;40452;50.080;20.040;2023-07-08T13:21:23;2.13;;;1.50;;
54557;SDS011;40452;50.080;20.040;2023-07-08T13:23:53;4.28;;;1.90;;
54557;SDS011;40452;50.080;20.040;2023-07-08T13:26:22;2.40;;;1.73;;
54557;SDS011;40452;50.080;20.040;2023-07-08T13:28:58;4.22;;;1.65;;
54557;SDS011;40452;50.080;20.040;2023-07-08T13:31:31;3.13;;;1.52;;
54557;SDS011;40452;50.080;20.040;2023-07-08T13:34:07;2.28;;;1.55;;
54557;SDS011;40452;50.080;20.040;2023-07-08T13:36:37;2.85;;;1.73;;
54557;SDS011;40452;50.080;20.040;2023-07-08T13:39:08;4.63;;;1.55;;
54557;SDS011;40452;50.080;20.040;2023-07-08T13:41:41;3.20;;;1.85;;
54557;SDS011;40452;50.080;20.040;2023-07-08T13:44:09;3.40;;;2.30;;
54557;SDS011;40452;50.080;20.040;2023-07-08T13:46:40;3.35;;;2.08;;
54557;SDS011;40452;50.080;20.040;2023-07-08T13:49:15;3.08;;;1.95;;
54557;SDS011;40452;50.080;20.040;2023-07-08T13:52:05;2.47;;;1.75;;
54557;SDS011;40452;50.080;20.040;2023-07-08T13:54:44;4.63;;;1.80;;
54557;SDS011;40452;50.080;20.040;2023-07-08T13:57:16;4.07;;;1.80;;
54557;SDS011;40452;50.080;20.040;2023-07-08T13:59:43;3.60;;;1.90;;
54557;SDS011;40452;50.080;20.040;2023-07-08T14:02:16;3.30;;;1.70;;
54557;SDS011;40452;50.080;20.040;2023-07-08T14:04:50;3.65;;;1.95;;
54557;SDS011;40452;50.080;20.040;2023-07-08T14:07:18;4.43;;;1.90;;
54557;SDS011;40452;50.080;20.040;2023-07-08T14:09:49;3.92;;;1.75;;
54557;SDS011;40452;50.080;20.040;2023-07-08T14:12:14;3.15;;;2.20;;
54557;SDS011;40452;50.080;20.040;2023-07-08T14:14:40;2.72;;;2.05;;
54557;SDS011;40452;50.080;20.040;2023-07-08T14:17:08;3.63;;;1.75;;
54557;SDS011;40452;50.080;20.040;2023-07-08T14:24:38;2.45;;;1.27;;
54557;SDS011;40452;50.080;20.040;2023-07-08T14:27:04;2.88;;;1.55;;
54557;SDS011;40452;50.080;20.040;2023-07-08T14:29:34;2.78;;;1.70;;
54557;SDS011;40452;50.080;20.040;2023-07-08T14:32:00;4.35;;;1.40;;
54557;SDS011;40452;50.080;20.040;2023-07-08T14:34:26;2.45;;;1.58;;
54557;SDS011;40452;50.080;20.040;2023-07-08T14:36:52;1.73;;;1.30;;
54557;SDS011;40452;50.080;20.040;2023-07-08T14:39:18;5.85;;;1.83;;
54557;SDS011;40452;50.080;20.040;2023-07-08T14:41:45;4.95;;;1.70;;
54557;SDS011;40452;50.080;20.040;2023-07-08T14:46:59;3.70;;;1.80;;
54557;SDS011;40452;50.080;20.040;2023-07-08T14:49:26;2.60;;;1.60;;
54557;SDS011;40452;50.080;20.040;2023-07-08T14:51:52;3.08;;;1.45;;
54557;SDS011;40452;50.080;20.040;2023-07-08T14:54:19;2.63;;;1.63;;
54557;SDS011;40452;50.080;20.040;2023-07-08T14:56:45;1.65;;;1.30;;
54557;SDS011;40452;50.080;20.040;2023-07-08T14:59:19;3.88;;;1.60;;
54557;SDS011;40452;50.080;20.040;2023-07-08T15:01:46;2.05;;;1.50;;
54557;SDS011;40452;50.080;20.040;2023-07-08T15:04:13;2.83;;;1.50;;
54557;SDS011;40452;50.080;20.040;2023-07-08T15:06:41;4.22;;;1.60;;
54557;SDS011;40452;50.080;20.040;2023-07-08T15:09:07;3.00;;;1.40;;
54557;SDS011;40452;50.080;20.040;2023-07-08T15:11:33;3.92;;;1.50;;
54557;SDS011;40452;50.080;20.040;2023-07-08T15:14:00;2.42;;;1.30;;
54557;SDS011;40452;50.080;20.040;2023-07-08T15:16:27;4.53;;;1.50;;
54557;SDS011;40452;50.080;20.040;2023-07-08T15:18:53;3.00;;;1.50;;
54557;SDS011;40452;50.080;20.040;2023-07-08T15:21:18;2.30;;;1.42;;
54557;SDS011;40452;50.080;20.040;2023-07-08T15:23:44;1.92;;;1.30;;
54557;SDS011;40452;50.080;20.040;2023-07-08T15:26:12;4.13;;;1.40;;
54557;SDS011;40452;50.080;20.040;2023-07-08T15:28:43;2.72;;;1.33;;
54557;SDS011;40452;50.080;20.040;2023-07-08T15:31:18;3.38;;;1.60;;
54557;SDS011;40452;50.080;20.040;2023-07-08T15:33:45;2.22;;;1.50;;
54557;SDS011;40452;50.080;20.040;2023-07-08T15:36:11;3.50;;;1.40;;
54557;SDS011;40452;50.080;20.040;2023-07-08T15:38:41;4.25;;;1.75;;
54557;SDS011;40452;50.080;20.040;2023-07-08T15:41:20;3.35;;;1.58;;
54557;SDS011;40452;50.080;20.040;2023-07-08T15:43:46;3.30;;;1.45;;
54557;SDS011;40452;50.080;20.040;2023-07-08T15:46:12;2.03;;;1.33;;
54557;SDS011;40452;50.080;20.040;2023-07-08T15:48:38;2.75;;;1.67;;
54557;SDS011;40452;50.080;20.040;2023-07-08T15:51:03;2.97;;;1.60;;
54557;SDS011;40452;50.080;20.040;2023-07-08T15:53:29;2.13;;;1.30;;
54557;SDS011;40452;50.080;20.040;2023-07-08T15:55:54;4.05;;;1.50;;
54557;SDS011;40452;50.080;20.040;2023-07-08T15:58:27;2.20;;;1.40;;
54557;SDS011;40452;50.080;20.040;2023-07-08T16:00:56;2.53;;;1.52;;
54557;SDS011;40452;50.080;20.040;2023-07-08T16:05:57;2.88;;;1.70;;
54557;SDS011;40452;50.080;20.040;2023-07-08T16:08:24;3.88;;;1.60;;
54557;SDS011;40452;50.080;20.040;2023-07-08T16:11:12;3.13;;;1.50;;
54557;SDS011;40452;50.080;20.040;2023-07-08T16:13:38;3.30;;;1.35;;
54557;SDS011;40452;50.080;20.040;2023-07-08T16:16:06;2.17;;;1.40;;
54557;SDS011;40452;50.080;20.040;2023-07-08T16:18:33;2.45;;;1.60;;
54557;SDS011;40452;50.080;20.040;2023-07-08T16:20:59;3.03;;;1.70;;
54557;SDS011;40452;50.080;20.040;2023-07-08T16:23:25;2.30;;;1.50;;
54557;SDS011;40452;50.080;20.040;2023-07-08T16:25:51;3.22;;;1.50;;
54557;SDS011;40452;50.080;20.040;2023-07-08T16:28:40;2.85;;;1.80;;
54557;SDS011;40452;50.080;20.040;2023-07-08T16:31:09;2.10;;;1.60;;
54557;SDS011;40452;50.080;20.040;2023-07-08T16:33:36;3.17;;;1.90;;
54557;SDS011;40452;50.080;20.040;2023-07-08T16:36:01;5.55;;;1.50;;
54557;SDS011;40452;50.080;20.040;2023-07-08T16:38:28;2.03;;;1.48;;
54557;SDS011;40452;50.080;20.040;2023-07-08T16:40:53;3.42;;;2.17;;
54557;SDS011;40452;50.080;20.040;2023-07-08T16:43:27;6.05;;;2.30;;
54557;SDS011;40452;50.080;20.040;2023-07-08T16:45:55;6.25;;;2.47;;
54557;SDS011;40452;50.080;20.040;2023-07-08T16:48:21;4.75;;;2.30;;
54557;SDS011;40452;50.080;20.040;2023-07-08T16:50:46;7.10;;;2.28;;
54557;SDS011;40452;50.080;20.040;2023-07-08T16:53:12;3.55;;;2.20;;
54557;SDS011;40452;50.080;20.040;2023-07-08T16:55:38;3.10;;;2.22;;
54557;SDS011;40452;50.080;20.040;2023-07-08T16:58:04;4.35;;;2.38;;
54557;SDS011;40452;50.080;20.040;2023-07-08T17:00:30;4.47;;;2.58;;
54557;SDS011;40452;50.080;20.040;2023-07-08T17:02:56;5.03;;;2.30;;
54557;SDS011;40452;50.080;20.040;2023-07-08T17:05:30;3.67;;;2.28;;
54557;SDS011;40452;50.080;20.040;2023-07-08T17:07:58;6.68;;;2.75;;
54557;SDS011;40452;50.080;20.040;2023-07-08T17:10:24;7.72;;;2.92;;
54557;SDS011;40452;50.080;20.040;2023-07-08T17:12:51;4.43;;;2.50;;
54557;SDS011;40452;50.080;20.040;2023-07-08T17:15:18;4.68;;;2.90;;
54557;SDS011;40452;50.080;20.040;2023-07-08T17:17:49;5.68;;;3.75;;
54557;SDS011;40452;50.080;20.040;2023-07-08T17:20:21;5.15;;;3.95;;
54557;SDS011;40452;50.080;20.040;2023-07-08T17:22:49;7.97;;;3.80;;
54557;SDS011;40452;50.080;20.040;2023-07-08T17:25:21;4.13;;;3.58;;
54557;SDS011;40452;50.080;20.040;2023-07-08T17:27:50;4.90;;;3.38;;
54557;SDS011;40452;50.080;20.040;2023-07-08T17:30:17;6.00;;;3.53;;
54557;SDS011;40452;50.080;20.040;2023-07-08T17:32:44;4.72;;;3.70;;
54557;SDS011;40452;50.080;20.040;2023-07-08T17:35:16;8.13;;;3.53;;
54557;SDS011;40452;50.080;20.040;2023-07-08T17:37:43;3.30;;;2.88;;
54557;SDS011;40452;50.080;20.040;2023-07-08T17:40:13;5.22;;;3.30;;
54557;SDS011;40452;50.080;20.040;2023-07-08T17:42:51;7.22;;;3.55;;
54557;SDS011;40452;50.080;20.040;2023-07-08T17:45:19;4.45;;;3.58;;
54557;SDS011;40452;50.080;20.040;2023-07-08T17:47:49;5.65;;;4.25;;
54557;SDS011;40452;50.080;20.040;2023-07-08T17:50:19;5.05;;;3.55;;
54557;SDS011;40452;50.080;20.040;2023-07-08T17:52:47;4.78;;;4.10;;
54557;SDS011;40452;50.080;20.040;2023-07-08T17:55:13;5.43;;;3.97;;
54557;SDS011;40452;50.080;20.040;2023-07-08T17:57:39;5.43;;;3.95;;
54557;SDS011;40452;50.080;20.040;2023-07-08T18:00:13;5.10;;;3.72;;
54557;SDS011;40452;50.080;20.040;2023-07-08T18:02:46;5.05;;;3.80;;
54557;SDS011;40452;50.080;20.040;2023-07-08T18:05:13;5.68;;;4.40;;
54557;SDS011;40452;50.080;20.040;2023-07-08T18:07:42;7.75;;;4.38;;
54557;SDS011;40452;50.080;20.040;2023-07-08T18:10:09;6.30;;;4.43;;
54557;SDS011;40452;50.080;20.040;2023-07-08T18:12:35;5.00;;;3.70;;
54557;SDS011;40452;50.080;20.040;2023-07-08T18:15:02;5.68;;;4.00;;
54557;SDS011;40452;50.080;20.040;2023-07-08T18:17:35;6.90;;;5.03;;
54557;SDS011;40452;50.080;20.040;2023-07-08T18:20:00;5.68;;;3.80;;
54557;SDS011;40452;50.080;20.040;2023-07-08T18:22:26;5.32;;;3.72;;
54557;SDS011;40452;50.080;20.040;2023-07-08T18:24:51;6.35;;;4.00;;
54557;SDS011;40452;50.080;20.040;2023-07-08T18:27:17;11.57;;;4.85;;
54557;SDS011;40452;50.080;20.040;2023-07-08T18:29:42;12.82;;;7.32;;
54557;SDS011;40452;50.080;20.040;2023-07-08T18:32:12;8.73;;;6.70;;
54557;SDS011;40452;50.080;20.040;2023-07-08T18:34:38;9.23;;;6.07;;
54557;SDS011;40452;50.080;20.040;2023-07-08T18:37:03;9.00;;;6.18;;
54557;SDS011;40452;50.080;20.040;2023-07-08T18:39:29;8.32;;;6.15;;
54557;SDS011;40452;50.080;20.040;2023-07-08T18:41:54;11.50;;;6.22;;
54557;SDS011;40452;50.080;20.040;2023-07-08T18:44:27;9.18;;;7.18;;
54557;SDS011;40452;50.080;20.040;2023-07-08T18:46:55;10.88;;;7.15;;
54557;SDS011;40452;50.080;20.040;2023-07-08T18:49:21;10.68;;;7.32;;
54557;SDS011;40452;50.080;20.040;2023-07-08T18:51:49;10.82;;;7.07;;
54557;SDS011;40452;50.080;20.040;2023-07-08T18:54:18;9.82;;;7.65;;
54557;SDS011;40452;50.080;20.040;2023-07-08T18:56:45;10.73;;;8.52;;
54557;SDS011;40452;50.080;20.040;2023-07-08T18:59:11;12.23;;;8.40;;
54557;SDS011;40452;50.080;20.040;2023-07-08T19:01:38;10.07;;;7.70;;
54557;SDS011;40452;50.080;20.040;2023-07-08T19:04:31;9.00;;;7.28;;
54557;SDS011;40452;50.080;20.040;2023-07-08T19:06:55;12.60;;;9.60;;
54557;SDS011;40452;50.080;20.040;2023-07-08T19:09:22;10.88;;;6.97;;
54557;SDS011;40452;50.080;20.040;2023-07-08T19:11:48;10.65;;;8.40;;
54557;SDS011;40452;50.080;20.040;2023-07-08T19:14:15;18.08;;;14.77;;
54557;SDS011;40452;50.080;20.040;2023-07-08T19:16:42;19.55;;;15.57;;
54557;SDS011;40452;50.080;20.040;2023-07-08T19:19:09;15.40;;;11.32;;
54557;SDS011;40452;50.080;20.040;2023-07-08T19:21:38;12.18;;;8.82;;
54557;SDS011;40452;50.080;20.040;2023-07-08T19:24:04;14.98;;;10.85;;
54557;SDS011;40452;50.080;20.040;2023-07-08T19:26:31;15.02;;;10.93;;
54557;SDS011;40452;50.080;20.040;2023-07-08T19:28:56;13.07;;;9.50;;
54557;SDS011;40452;50.080;20.040;2023-07-08T19:31:26;15.45;;;10.07;;
54557;SDS011;40452;50.080;20.040;2023-07-08T19:33:56;15.23;;;10.15;;
54557;SDS011;40452;50.080;20.040;2023-07-08T19:36:23;17.70;;;10.25;;
54557;SDS011;40452;50.080;20.040;2023-07-08T19:38:50;12.32;;;9.00;;
54557;SDS011;40452;50.080;20.040;2023-07-08T19:41:21;16.35;;;9.52;;
54557;SDS011;40452;50.080;20.040;2023-07-08T19:43:50;13.98;;;8.88;;
54557;SDS011;40452;50.080;20.040;2023-07-08T19:46:16;15.40;;;12.15;;
54557;SDS011;40452;50.080;20.040;2023-07-08T19:48:42;12.50;;;8.80;;
54557;SDS011;40452;50.080;20.040;2023-07-08T19:51:09;14.57;;;8.80;;
54557;SDS011;40452;50.080;20.040;2023-07-08T19:53:36;14.60;;;8.68;;
54557;SDS011;40452;50.080;20.040;2023-07-08T19:56:12;16.38;;;9.65;;
54557;SDS011;40452;50.080;20.040;2023-07-08T19:58:40;12.10;;;7.95;;
54557;SDS011;40452;50.080;20.040;2023-07-08T20:01:07;12.63;;;7.05;;
54557;SDS011;40452;50.080;20.040;2023-07-08T20:03:33;12.15;;;7.53;;
54557;SDS011;40452;50.080;20.040;2023-07-08T20:06:12;11.80;;;8.02;;
54557;SDS011;40452;50.080;20.040;2023-07-08T20:08:44;9.05;;;6.70;;